Time;durP1;ratioP1;P1;durP2;ratioP2;P2;SDS_P1;SDS_P2;PMS_P1;PMS_P2;Temp;Humidity;BMP_temperature;BMP_pressure;BME280_temperature;BME280_humidity;BME280_pressure;Samples;Min_cycle;Max_cycle;Signal;HPM_P1;HPM_P2
2023/12/04 00:01:29;;;;;;;;;;;;;;;;;;4163480;28;19924;-60
2023/12/04 00:03:31;;;;;;;;;;;;;;;;;;4164030;28;19932;-61
2023/12/04 00:05:32;;;;;;;;;;;;;;;;;;4164362;28;19976;-61
2023/12/04 00:07:34;;;;;;;;;;;;;;;;;;4164398;28;19923;-60
2023/12/04 00:09:35;;;;;;;;;;;;;;;;;;4164181;28;19929;-61
2023/12/04 00:11:37;;;;;;;;;;;;;;;;;;4164176;28;19928;-60
2023/12/04 00:13:38;;;;;;;;;;;;;;;;;;4148929;28;19932;-61
2023/12/04 00:15:40;;;;;;;;;;;;;;;;;;4147745;28;19922;-61
2023/12/04 00:17:42;;;;;;;;;;;;;;;;;;4148100;28;19925;-61
2023/12/04 00:19:43;;;;;;;;;;;;;;;;;;4148024;28;19971;-60
2023/12/04 00:21:45;;;;;;;;;;;;;;;;;;4148069;28;19979;-60
2023/12/04 00:23:46;;;;;;;;;;;;;;;;;;4148014;28;19932;-60
2023/12/04 00:25:48;;;;;;;;;;;;;;;;;;4148499;28;19980;-59
2023/12/04 00:27:49;;;;;;;;;;;;;;;;;;4150189;28;19921;-60
2023/12/04 00:29:51;;;;;;;;;;;;;;;;;;4148180;28;19921;-61
2023/12/04 00:31:52;;;;;;;;;;;;;;;;;;4148269;28;20392;-60
2023/12/04 00:33:54;;;;;;;;;;;;;;;;;;4147936;28;19921;-60
2023/12/04 00:35:55;;;;;;;;;;;;;;;;;;4147863;28;20312;-61
2023/12/04 00:37:57;;;;;;;;;;;;;;;;;;4146387;28;20337;-61
2023/12/04 00:39:58;;;;;;;;;;;;;;;;;;4165633;28;20760;-59
2023/12/04 00:42:00;;;;;;;;;;;;;;;;;;4167159;28;19964;-61
2023/12/04 00:44:01;;;;;;;;;;;;;;;;;;4166975;28;19929;-60
2023/12/04 00:46:03;;;;;;;;;;;;;;;;;;4167434;28;19921;-59
2023/12/04 00:48:04;;;;;;;;;;;;;;;;;;4152369;28;19921;-60
2023/12/04 00:50:06;;;;;;;;;;;;;;;;;;4150610;28;19928;-60
2023/12/04 00:52:07;;;;;;;;;;;;;;;;;;4150527;28;20297;-60
2023/12/04 00:54:09;;;;;;;;;;;;;;;;;;4160838;28;19928;-60
2023/12/04 00:56:11;;;;;;;;;;;;;;;;;;4167203;28;19971;-60
2023/12/04 00:58:12;;;;;;;;;;;;;;;;;;4166956;28;19929;-60
2023/12/04 01:00:14;;;;;;;;;;;;;;;;;;4149028;28;19940;-61
2023/12/04 01:02:15;;;;;;;;;;;;;;;;;;4166722;28;19999;-60
2023/12/04 01:04:17;;;;;;;;;;;;;;;;;;4166766;28;19940;-60
2023/12/04 01:06:18;;;;;;;;;;;;;;;;;;4167035;28;19925;-60
2023/12/04 01:08:20;;;;;;;;;;;;;;;;;;4163899;28;19925;-60
2023/12/04 01:10:22;;;;;;;;;;;;;;;;;;4150465;28;19925;-60
2023/12/04 01:12:24;;;;;;;;;;;;;;;;;;4133161;28;19922;-64
2023/12/04 01:14:25;;;;;;;;;;;;;;;;;;4150482;28;19921;-64
2023/12/04 01:16:27;;;;;;;;;;;;;;;;;;4150481;28;19937;-64
2023/12/04 01:18:28;;;;;;;;;;;;;;;;;;4132818;28;19921;-64
2023/12/04 01:20:33;;;;;;;;;;;;;;;;;;4150166;28;19927;-64
2023/12/04 01:22:34;;;;;;;;;;;;;;;;;;4150424;28;19928;-64
2023/12/04 01:24:36;;;;;;;;;;;;;;;;;;4150268;28;20376;-64
2023/12/04 01:26:37;;;;;;;;;;;;;;;;;;4157252;28;20369;-64
2023/12/04 01:28:39;;;;;;;;;;;;;;;;;;4166630;28;19925;-64
2023/12/04 01:30:40;;;;;;;;;;;;;;;;;;4166360;28;19925;-64
2023/12/04 01:32:42;;;;;;;;;;;;;;;;;;4166408;28;19982;-64
2023/12/04 01:34:43;;;;;;;;;;;;;;;;;;4166518;28;20336;-64
2023/12/04 01:36:45;;;;;;;;;;;;;;;;;;4166256;28;19921;-64
2023/12/04 01:38:49;;;;;;;;;;;;;;;;;;4148957;28;19976;-64
2023/12/04 01:40:50;;;;;;;;;;;;;;;;;;4166005;28;20016;-64
2023/12/04 01:42:52;;;;;;;;;;;;;;;;;;4163400;28;20391;-64
2023/12/04 01:44:54;;;;;;;;;;;;;;;;;;4150008;28;19928;-64
2023/12/04 01:46:56;;;;;;;;;;;;;;;;;;4149983;28;19932;-64
2023/12/04 01:48:57;;;;;;;;;;;;;;;;;;4149706;28;19948;-64
2023/12/04 01:50:59;;;;;;;;;;;;;;;;;;4148733;28;20024;-63
2023/12/04 01:53:00;;;;;;;;;;;;;;;;;;4133219;28;19934;-64
2023/12/04 01:55:02;;;;;;;;;;;;;;;;;;4166049;28;19924;-64
2023/12/04 01:57:03;;;;;;;;;;;;;;;;;;4166204;28;19925;-64
2023/12/04 01:59:05;;;;;;;;;;;;;;;;;;4166267;28;19921;-64
2023/12/04 02:01:06;;;;;;;;;;;;;;;;;;4165931;28;19921;-64
2023/12/04 02:03:08;;;;;;;;;;;;;;;;;;4165886;28;19921;-64
2023/12/04 02:05:09;;;;;;;;;;;;;;;;;;4158991;28;19925;-64
2023/12/04 02:07:11;;;;;;;;;;;;;;;;;;4149790;28;19928;-64
2023/12/04 02:09:14;;;;;;;;;;;;;;;;;;4133664;28;19929;-64
2023/12/04 02:11:15;;;;;;;;;;;;;;;;;;4149475;28;19929;-64
2023/12/04 02:13:17;;;;;;;;;;;;;;;;;;4149411;28;20443;-64
2023/12/04 02:15:18;;;;;;;;;;;;;;;;;;4149304;28;20362;-64
2023/12/04 02:17:20;;;;;;;;;;;;;;;;;;4149312;28;19921;-63
2023/12/04 02:19:21;;;;;;;;;;;;;;;;;;4149190;28;19925;-64
2023/12/04 02:21:25;;;;;;;;;;;;;;;;;;4149394;28;20366;-60
2023/12/04 02:23:26;;;;;;;;;;;;;;;;;;4149445;28;20408;-60
2023/12/04 02:25:28;;;;;;;;;;;;;;;;;;4149453;28;20336;-59
2023/12/04 02:27:35;;;;;;;;;;;;;;;;;;4149088;28;19921;-59
2023/12/04 02:29:37;;;;;;;;;;;;;;;;;;4164237;28;19924;-59
2023/12/04 02:31:38;;;;;;;;;;;;;;;;;;4149109;28;19944;-60
2023/12/04 02:33:40;;;;;;;;;;;;;;;;;;4149278;28;19943;-60
2023/12/04 02:35:41;;;;;;;;;;;;;;;;;;4148986;28;20461;-59
2023/12/04 02:37:43;;;;;;;;;;;;;;;;;;4149212;28;19926;-60
2023/12/04 02:39:44;;;;;;;;;;;;;;;;;;4148846;28;19984;-60
2023/12/04 02:41:46;;;;;;;;;;;;;;;;;;4149184;28;19949;-60
2023/12/04 02:43:47;;;;;;;;;;;;;;;;;;4148828;28;20270;-60
2023/12/04 02:45:49;;;;;;;;;;;;;;;;;;4149104;28;20365;-60
2023/12/04 02:47:50;;;;;;;;;;;;;;;;;;4149257;28;19922;-60
2023/12/04 02:49:53;;;;;;;;;;;;;;;;;;4148744;28;20366;-60
2023/12/04 02:51:54;;;;;;;;;;;;;;;;;;4149062;28;20476;-60
2023/12/04 02:53:56;;;;;;;;;;;;;;;;;;4139801;28;19926;-61
2023/12/04 02:55:57;;;;;;;;;;;;;;;;;;4165319;28;19925;-60
2023/12/04 02:57:59;;;;;;;;;;;;;;;;;;4165380;28;19925;-60
2023/12/04 03:00:00;;;;;;;;;;;;;;;;;;4164883;28;19925;-59
2023/12/04 03:02:02;;;;;;;;;;;;;;;;;;4134537;28;19989;-59
2023/12/04 03:04:03;;;;;;;;;;;;;;;;;;4148584;28;20305;-59
2023/12/04 03:06:05;;;;;;;;;;;;;;;;;;4148719;28;19927;-60
2023/12/04 03:08:07;;;;;;;;;;;;;;;;;;4150652;28;19952;-60
2023/12/04 03:10:08;;;;;;;;;;;;;;;;;;4165100;28;20382;-60
2023/12/04 03:12:10;;;;;;;;;;;;;;;;;;4165196;28;19928;-60
2023/12/04 03:14:11;;;;;;;;;;;;;;;;;;4165204;28;19970;-60
2023/12/04 03:16:13;;;;;;;;;;;;;;;;;;4153470;28;19960;-60
2023/12/04 03:18:14;;;;;;;;;;;;;;;;;;4148761;28;19955;-59
2023/12/04 03:20:19;;;;;;;;;;;;;;;;;;4148228;28;19922;-60
2023/12/04 03:22:23;;;;;;;;;;;;;;;;;;4149036;28;19932;-60
2023/12/04 03:24:25;;;;;;;;;;;;;;;;;;4148790;28;19925;-59
2023/12/04 03:26:28;;;;;;;;;;;;;;;;;;4148764;28;19921;-60
2023/12/04 03:28:29;;;;;;;;;;;;;;;;;;4148344;28;19922;-59
2023/12/04 03:30:31;;;;;;;;;;;;;;;;;;4146951;28;19956;-59
2023/12/04 03:32:32;;;;;;;;;;;;;;;;;;4148769;28;19927;-59
2023/12/04 03:34:34;;;;;;;;;;;;;;;;;;4148352;28;19961;-60
2023/12/04 03:36:35;;;;;;;;;;;;;;;;;;4153929;28;20007;-60
2023/12/04 03:38:37;;;;;;;;;;;;;;;;;;4163410;28;19925;-59
2023/12/04 03:40:38;;;;;;;;;;;;;;;;;;4163068;28;19928;-59
2023/12/04 03:42:40;;;;;;;;;;;;;;;;;;4163248;28;20395;-60
2023/12/04 03:44:42;;;;;;;;;;;;;;;;;;4162840;28;19928;-59
2023/12/04 03:46:44;;;;;;;;;;;;;;;;;;4163106;28;20004;-60
2023/12/04 03:48:45;;;;;;;;;;;;;;;;;;4163020;28;19975;-59
2023/12/04 03:50:47;;;;;;;;;;;;;;;;;;4162823;28;20448;-60
2023/12/04 03:52:48;;;;;;;;;;;;;;;;;;4163007;28;19932;-59
2023/12/04 03:54:49;;;;;;;;;;;;;;;;;;4163802;28;19925;-59
2023/12/04 03:56:51;;;;;;;;;;;;;;;;;;4163878;28;19925;-59
2023/12/04 03:58:53;;;;;;;;;;;;;;;;;;4147919;28;20271;-59
2023/12/04 04:00:54;;;;;;;;;;;;;;;;;;4147645;28;19929;-60
2023/12/04 04:02:56;;;;;;;;;;;;;;;;;;4147942;28;19921;-60
2023/12/04 04:04:57;;;;;;;;;;;;;;;;;;4148104;28;20015;-59
2023/12/04 04:06:59;;;;;;;;;;;;;;;;;;4148016;28;20369;-59
2023/12/04 04:09:03;;;;;;;;;;;;;;;;;;4157337;28;20447;-59
2023/12/04 04:11:05;;;;;;;;;;;;;;;;;;4164315;28;19962;-60
2023/12/04 04:13:06;;;;;;;;;;;;;;;;;;4130463;28;20310;-59
2023/12/04 04:15:08;;;;;;;;;;;;;;;;;;4150033;28;20003;-59
2023/12/04 04:17:10;;;;;;;;;;;;;;;;;;4151231;28;20366;-60
2023/12/04 04:19:11;;;;;;;;;;;;;;;;;;4151517;28;19936;-59
2023/12/04 04:21:15;;;;;;;;;;;;;;;;;;4151262;28;20016;-59
2023/12/04 04:23:16;;;;;;;;;;;;;;;;;;4151507;28;19925;-59
2023/12/04 04:25:18;;;;;;;;;;;;;;;;;;4151080;28;19926;-59
2023/12/04 04:27:20;;;;;;;;;;;;;;;;;;4164159;28;19920;-60
2023/12/04 04:29:21;;;;;;;;;;;;;;;;;;4167562;28;19967;-59
2023/12/04 04:31:23;;;;;;;;;;;;;;;;;;4166486;28;20332;-59
2023/12/04 04:33:24;;;;;;;;;;;;;;;;;;4150996;28;19980;-59
2023/12/04 04:35:26;;;;;;;;;;;;;;;;;;4150978;28;19921;-59
2023/12/04 04:37:27;;;;;;;;;;;;;;;;;;4151188;28;19929;-59
2023/12/04 04:39:29;;;;;;;;;;;;;;;;;;4152899;28;19964;-60
2023/12/04 04:41:30;;;;;;;;;;;;;;;;;;4167199;28;19932;-59
2023/12/04 04:43:32;;;;;;;;;;;;;;;;;;4167689;28;19929;-62
2023/12/04 04:45:33;;;;;;;;;;;;;;;;;;4167389;28;19921;-62
2023/12/04 04:47:35;;;;;;;;;;;;;;;;;;4167642;28;19929;-62
2023/12/04 04:49:36;;;;;;;;;;;;;;;;;;4166956;28;19921;-62
2023/12/04 04:51:38;;;;;;;;;;;;;;;;;;4149473;28;19925;-62
2023/12/04 04:53:39;;;;;;;;;;;;;;;;;;4159135;28;19975;-62
2023/12/04 04:55:41;;;;;;;;;;;;;;;;;;4167091;28;19932;-63
2023/12/04 04:57:48;;;;;;;;;;;;;;;;;;4167129;28;19980;-62
2023/12/04 04:59:49;;;;;;;;;;;;;;;;;;4167240;28;19925;-62
2023/12/04 05:01:51;;;;;;;;;;;;;;;;;;4166723;28;19979;-62
2023/12/04 05:03:52;;;;;;;;;;;;;;;;;;4166794;28;20015;-63
2023/12/04 05:05:54;;;;;;;;;;;;;;;;;;4167141;28;19921;-62
2023/12/04 05:07:55;;;;;;;;;;;;;;;;;;4162379;28;19932;-62
2023/12/04 05:09:57;;;;;;;;;;;;;;;;;;4163565;28;19929;-62
2023/12/04 05:11:58;;;;;;;;;;;;;;;;;;4150404;28;20017;-62
2023/12/04 05:14:00;;;;;;;;;;;;;;;;;;4150669;28;20365;-62
2023/12/04 05:16:01;;;;;;;;;;;;;;;;;;4149957;28;19968;-62
2023/12/04 05:18:03;;;;;;;;;;;;;;;;;;4150077;28;20012;-62
2023/12/04 05:20:06;;;;;;;;;;;;;;;;;;4150259;28;19944;-62
2023/12/04 05:22:16;;;;;;;;;;;;;;;;;;4150309;28;20348;-62
2023/12/04 05:24:17;;;;;;;;;;;;;;;;;;4150492;28;20020;-62
2023/12/04 05:26:19;;;;;;;;;;;;;;;;;;4151484;28;19921;-62
2023/12/04 05:28:20;;;;;;;;;;;;;;;;;;4155122;28;20521;-63
2023/12/04 05:30:22;;;;;;;;;;;;;;;;;;4149999;28;19921;-62
2023/12/04 05:32:23;;;;;;;;;;;;;;;;;;4150081;28;19921;-62
2023/12/04 05:34:25;;;;;;;;;;;;;;;;;;4150245;28;19925;-62
2023/12/04 05:36:26;;;;;;;;;;;;;;;;;;4150226;28;19971;-62
2023/12/04 05:38:31;;;;;;;;;;;;;;;;;;4150039;28;19921;-62
2023/12/04 05:40:32;;;;;;;;;;;;;;;;;;4149801;28;20301;-62
2023/12/04 05:42:34;;;;;;;;;;;;;;;;;;4150055;28;19925;-62
2023/12/04 05:44:36;;;;;;;;;;;;;;;;;;4150002;28;19925;-62
2023/12/04 05:46:37;;;;;;;;;;;;;;;;;;4150059;28;19925;-62
2023/12/04 05:48:41;;;;;;;;;;;;;;;;;;4149880;28;19925;-62
2023/12/04 05:50:43;;;;;;;;;;;;;;;;;;4149797;28;19928;-62
2023/12/04 05:52:44;;;;;;;;;;;;;;;;;;4150120;28;19921;-62
2023/12/04 05:54:46;;;;;;;;;;;;;;;;;;4149758;28;19936;-62
2023/12/04 05:56:48;;;;;;;;;;;;;;;;;;4149954;28;19928;-62
2023/12/04 05:58:49;;;;;;;;;;;;;;;;;;4149652;28;19968;-62
2023/12/04 06:00:51;;;;;;;;;;;;;;;;;;4149553;28;19964;-62
2023/12/04 06:02:52;;;;;;;;;;;;;;;;;;4149473;28;19922;-62
2023/12/04 06:04:54;;;;;;;;;;;;;;;;;;4149239;28;19925;-62
2023/12/04 06:06:55;;;;;;;;;;;;;;;;;;4149847;28;19937;-62
2023/12/04 06:08:57;;;;;;;;;;;;;;;;;;4157819;28;19921;-62
2023/12/04 06:10:59;;;;;;;;;;;;;;;;;;4165371;28;19948;-62
2023/12/04 06:13:00;;;;;;;;;;;;;;;;;;4166059;28;19921;-62
2023/12/04 06:15:02;;;;;;;;;;;;;;;;;;4147709;28;20019;-61
2023/12/04 06:17:05;;;;;;;;;;;;;;;;;;4160532;28;19967;-61
2023/12/04 06:19:07;;;;;;;;;;;;;;;;;;4149629;28;19932;-61
2023/12/04 06:21:08;;;;;;;;;;;;;;;;;;4149250;28;19921;-61
2023/12/04 06:23:10;;;;;;;;;;;;;;;;;;4149541;28;20457;-61
2023/12/04 06:25:11;;;;;;;;;;;;;;;;;;4149414;28;19921;-62
2023/12/04 06:27:15;;;;;;;;;;;;;;;;;;4149404;28;19964;-61
2023/12/04 06:29:16;;;;;;;;;;;;;;;;;;4153627;28;19930;-61
2023/12/04 06:31:18;;;;;;;;;;;;;;;;;;4148367;28;19932;-61
2023/12/04 06:33:20;;;;;;;;;;;;;;;;;;4149274;28;20381;-61
2023/12/04 06:35:21;;;;;;;;;;;;;;;;;;4149282;28;20373;-69
2023/12/04 06:37:23;;;;;;;;;;;;;;;;;;4148612;28;19932;-69
2023/12/04 06:39:24;;;;;;;;;;;;;;;;;;4148693;28;20369;-68
2023/12/04 06:41:26;;;;;;;;;;;;;;;;;;4147615;28;19929;-67
2023/12/04 06:43:27;;;;;;;;;;;;;;;;;;4148191;28;19987;-67
2023/12/04 06:45:29;;;;;;;;;;;;;;;;;;4148810;28;19972;-69
2023/12/04 06:47:30;;;;;;;;;;;;;;;;;;4148862;28;19925;-69
2023/12/04 06:49:32;;;;;;;;;;;;;;;;;;4148902;28;19928;-69
2023/12/04 06:51:34;;;;;;;;;;;;;;;;;;4148916;28;20016;-69
2023/12/04 06:53:36;;;;;;;;;;;;;;;;;;4154316;28;19921;-68
2023/12/04 06:55:37;;;;;;;;;;;;;;;;;;4165200;28;19925;-69
2023/12/04 06:57:39;;;;;;;;;;;;;;;;;;4165155;28;19920;-69
2023/12/04 06:59:40;;;;;;;;;;;;;;;;;;4165142;28;20412;-68
2023/12/04 07:01:42;;;;;;;;;;;;;;;;;;4149920;28;19969;-68
2023/12/04 07:03:44;;;;;;;;;;;;;;;;;;4148713;28;19936;-68
2023/12/04 07:05:46;;;;;;;;;;;;;;;;;;4148690;28;19928;-68
2023/12/04 07:07:47;;;;;;;;;;;;;;;;;;4131054;28;20377;-68
2023/12/04 07:09:49;;;;;;;;;;;;;;;;;;4164337;28;19933;-68
2023/12/04 07:11:51;;;;;;;;;;;;;;;;;;4164717;28;19967;-68
2023/12/04 07:13:52;;;;;;;;;;;;;;;;;;4164983;28;20051;-68
2023/12/04 07:15:54;;;;;;;;;;;;;;;;;;4164711;28;19921;-68
2023/12/04 07:17:55;;;;;;;;;;;;;;;;;;4164803;28;20278;-69
2023/12/04 07:19:58;;;;;;;;;;;;;;;;;;4164733;28;20432;-68
2023/12/04 07:22:01;;;;;;;;;;;;;;;;;;4132796;28;19928;-69
2023/12/04 07:24:03;;;;;;;;;;;;;;;;;;4164640;28;20292;-69
2023/12/04 07:26:06;;;;;;;;;;;;;;;;;;4164588;28;19991;-67
2023/12/04 07:28:08;;;;;;;;;;;;;;;;;;4154458;28;19925;-67
2023/12/04 07:30:09;;;;;;;;;;;;;;;;;;4146937;28;19928;-67
2023/12/04 07:32:11;;;;;;;;;;;;;;;;;;4147496;28;20358;-67
2023/12/04 07:34:12;;;;;;;;;;;;;;;;;;4147825;28;19921;-67
2023/12/04 07:36:14;;;;;;;;;;;;;;;;;;4145859;28;20385;-67
2023/12/04 07:38:16;;;;;;;;;;;;;;;;;;4146807;28;19992;-67
2023/12/04 07:40:17;;;;;;;;;;;;;;;;;;4148142;28;19929;-67
2023/12/04 07:42:19;;;;;;;;;;;;;;;;;;4147480;28;20439;-67
2023/12/04 07:44:20;;;;;;;;;;;;;;;;;;4147492;28;19948;-67
2023/12/04 07:46:22;;;;;;;;;;;;;;;;;;4130349;28;19957;-67
2023/12/04 07:48:23;;;;;;;;;;;;;;;;;;4148020;28;19933;-66
2023/12/04 07:50:25;;;;;;;;;;;;;;;;;;4146621;28;20391;-67
2023/12/04 07:52:27;;;;;;;;;;;;;;;;;;4146152;28;19921;-66
2023/12/04 07:54:29;;;;;;;;;;;;;;;;;;4143402;28;19991;-67
2023/12/04 07:56:30;;;;;;;;;;;;;;;;;;4161386;28;19927;-67
2023/12/04 07:58:32;;;;;;;;;;;;;;;;;;4148322;28;19921;-67
2023/12/04 08:00:33;;;;;;;;;;;;;;;;;;4148070;28;19996;-67
2023/12/04 08:02:35;;;;;;;;;;;;;;;;;;4148279;28;19922;-67
2023/12/04 08:04:36;;;;;;;;;;;;;;;;;;4147929;28;19922;-67
2023/12/04 08:06:38;;;;;;;;;;;;;;;;;;4148070;28;20357;-68
2023/12/04 08:08:40;;;;;;;;;;;;;;;;;;4136534;28;19925;-68
2023/12/04 08:10:41;;;;;;;;;;;;;;;;;;4164259;28;19971;-67
2023/12/04 08:12:43;;;;;;;;;;;;;;;;;;4164221;28;20439;-68
2023/12/04 08:14:46;;;;;;;;;;;;;;;;;;4164701;28;19925;-68
2023/12/04 08:16:47;;;;;;;;;;;;;;;;;;4157949;28;19931;-67
2023/12/04 08:18:49;;;;;;;;;;;;;;;;;;4148074;28;19925;-68
2023/12/04 08:20:51;;;;;;;;;;;;;;;;;;4146818;28;19921;-68
2023/12/04 08:22:52;;;;;;;;;;;;;;;;;;4154778;28;19921;-68
2023/12/04 08:24:54;;;;;;;;;;;;;;;;;;4150878;28;19928;-68
2023/12/04 08:26:55;;;;;;;;;;;;;;;;;;4147790;28;20381;-68
2023/12/04 08:28:57;;;;;;;;;;;;;;;;;;4146725;28;19964;-67
2023/12/04 08:30:58;;;;;;;;;;;;;;;;;;4147528;28;19926;-68
2023/12/04 08:33:00;;;;;;;;;;;;;;;;;;4147949;28;19922;-68
2023/12/04 08:35:02;;;;;;;;;;;;;;;;;;4147955;28;20297;-63
2023/12/04 08:37:03;;;;;;;;;;;;;;;;;;4147807;28;19972;-63
2023/12/04 08:39:05;;;;;;;;;;;;;;;;;;4140847;28;19937;-64
2023/12/04 08:41:06;;;;;;;;;;;;;;;;;;4146196;28;19921;-64
2023/12/04 08:43:08;;;;;;;;;;;;;;;;;;4145440;28;19932;-63
2023/12/04 08:45:09;;;;;;;;;;;;;;;;;;4147953;28;19921;-63
2023/12/04 08:47:11;;;;;;;;;;;;;;;;;;4143350;28;20416;-64
2023/12/04 08:49:13;;;;;;;;;;;;;;;;;;4147507;28;19957;-63
2023/12/04 08:51:14;;;;;;;;;;;;;;;;;;4144842;28;20020;-63
2023/12/04 08:53:16;;;;;;;;;;;;;;;;;;4149165;28;19972;-64
2023/12/04 08:55:17;;;;;;;;;;;;;;;;;;4164152;28;19951;-63
2023/12/04 08:57:19;;;;;;;;;;;;;;;;;;4153610;28;19921;-63
2023/12/04 08:59:21;;;;;;;;;;;;;;;;;;4147194;28;19926;-63
2023/12/04 09:01:22;;;;;;;;;;;;;;;;;;4147169;28;20308;-63
2023/12/04 09:03:24;;;;;;;;;;;;;;;;;;4150747;28;19979;-63
2023/12/04 09:05:30;;;;;;;;;;;;;;;;;;4148994;28;19929;-64
2023/12/04 09:07:31;;;;;;;;;;;;;;;;;;4149786;28;19925;-63
2023/12/04 09:09:36;;;;;;;;;;;;;;;;;;4147342;28;19921;-63
2023/12/04 09:11:37;;;;;;;;;;;;;;;;;;4149485;28;19922;-63
2023/12/04 09:13:39;;;;;;;;;;;;;;;;;;4148675;28;19964;-63
2023/12/04 09:15:40;;;;;;;;;;;;;;;;;;4147692;28;19967;-64
2023/12/04 09:17:42;;;;;;;;;;;;;;;;;;4149936;28;19927;-63
2023/12/04 09:19:48;;;;;;;;;;;;;;;;;;4150389;28;19925;-63
2023/12/04 09:21:50;;;;;;;;;;;;;;;;;;4150190;28;19921;-63
2023/12/04 09:23:59;;;;;;;;;;;;;;;;;;4166079;28;19972;-63
2023/12/04 09:26:01;;;;;;;;;;;;;;;;;;4166442;28;20273;-63
2023/12/04 09:28:02;;;;;;;;;;;;;;;;;;4150378;28;19990;-62
2023/12/04 09:30:04;;;;;;;;;;;;;;;;;;4150347;28;19923;-64
2023/12/04 09:32:06;;;;;;;;;;;;;;;;;;4150125;28;20333;-63
2023/12/04 09:34:08;;;;;;;;;;;;;;;;;;4150267;28;20003;-63
2023/12/04 09:36:09;;;;;;;;;;;;;;;;;;4149889;28;19925;-63
2023/12/04 09:38:11;;;;;;;;;;;;;;;;;;4149850;28;19921;-63
2023/12/04 09:40:12;;;;;;;;;;;;;;;;;;4149873;28;19921;-63
2023/12/04 09:42:14;;;;;;;;;;;;;;;;;;4148574;28;19922;-63
2023/12/04 09:44:15;;;;;;;;;;;;;;;;;;4132188;28;19926;-67
2023/12/04 09:46:17;;;;;;;;;;;;;;;;;;4141295;28;19929;-67
2023/12/04 09:48:18;;;;;;;;;;;;;;;;;;4149858;28;19931;-67
2023/12/04 09:50:22;;;;;;;;;;;;;;;;;;4149077;28;19925;-67
2023/12/04 09:52:24;;;;;;;;;;;;;;;;;;4149003;28;19921;-67
2023/12/04 09:54:26;;;;;;;;;;;;;;;;;;4146514;28;20003;-67
2023/12/04 09:56:27;;;;;;;;;;;;;;;;;;4157730;28;19991;-67
2023/12/04 09:58:29;;;;;;;;;;;;;;;;;;4154514;28;20374;-67
2023/12/04 10:00:31;;;;;;;;;;;;;;;;;;4148682;28;19929;-67
2023/12/04 10:02:32;;;;;;;;;;;;;;;;;;4145827;28;19921;-67
2023/12/04 10:04:34;;;;;;;;;;;;;;;;;;4148026;28;20396;-67
2023/12/04 10:06:36;;;;;;;;;;;;;;;;;;4149664;28;19929;-67
2023/12/04 10:08:38;;;;;;;;;;;;;;;;;;4152221;28;19924;-67
2023/12/04 10:10:39;;;;;;;;;;;;;;;;;;4146920;28;19928;-66
2023/12/04 10:12:42;;;;;;;;;;;;;;;;;;4119720;28;19934;-67
2023/12/04 10:14:43;;;;;;;;;;;;;;;;;;4148678;28;19921;-67
2023/12/04 10:16:45;;;;;;;;;;;;;;;;;;4148070;28;19921;-67
2023/12/04 10:18:46;;;;;;;;;;;;;;;;;;4147673;28;19987;-67
2023/12/04 10:20:48;;;;;;;;;;;;;;;;;;4147495;28;19929;-67
2023/12/04 10:22:49;;;;;;;;;;;;;;;;;;4147572;28;20282;-66
2023/12/04 10:24:51;;;;;;;;;;;;;;;;;;4146864;28;19964;-66
2023/12/04 10:26:52;;;;;;;;;;;;;;;;;;4148487;28;20628;-67
2023/12/04 10:28:54;;;;;;;;;;;;;;;;;;4148603;28;19932;-66
2023/12/04 10:30:55;;;;;;;;;;;;;;;;;;4146720;28;19929;-67
2023/12/04 10:33:00;;;;;;;;;;;;;;;;;;4147533;28;19941;-67
2023/12/04 10:35:02;;;;;;;;;;;;;;;;;;4147674;28;20343;-67
2023/12/04 10:37:04;;;;;;;;;;;;;;;;;;4148139;28;19925;-67
2023/12/04 10:39:06;;;;;;;;;;;;;;;;;;4147468;28;20361;-67
2023/12/04 10:41:07;;;;;;;;;;;;;;;;;;4148961;28;20301;-66
2023/12/04 10:43:09;;;;;;;;;;;;;;;;;;4148385;28;19925;-67
2023/12/04 10:45:11;;;;;;;;;;;;;;;;;;4145650;28;19968;-67
2023/12/04 10:47:12;;;;;;;;;;;;;;;;;;4147996;28;19921;-67
2023/12/04 10:49:14;;;;;;;;;;;;;;;;;;4148783;28;19964;-67
2023/12/04 10:51:17;;;;;;;;;;;;;;;;;;4131443;28;20017;-67
2023/12/04 10:53:18;;;;;;;;;;;;;;;;;;4151487;28;19925;-67
2023/12/04 10:55:20;;;;;;;;;;;;;;;;;;4151134;28;20000;-63
2023/12/04 10:57:21;;;;;;;;;;;;;;;;;;4149124;28;19922;-63
2023/12/04 10:59:23;;;;;;;;;;;;;;;;;;4148775;28;19928;-62
2023/12/04 11:01:24;;;;;;;;;;;;;;;;;;4148210;28;19944;-64
2023/12/04 11:03:26;;;;;;;;;;;;;;;;;;4148313;28;19971;-64
2023/12/04 11:05:27;;;;;;;;;;;;;;;;;;4150355;28;19925;-63
2023/12/04 11:07:29;;;;;;;;;;;;;;;;;;4148499;28;19921;-63
2023/12/04 11:09:32;;;;;;;;;;;;;;;;;;4156662;28;20381;-63
2023/12/04 11:11:33;;;;;;;;;;;;;;;;;;4148654;28;19925;-63
2023/12/04 11:13:35;;;;;;;;;;;;;;;;;;4148922;28;19926;-64
2023/12/04 11:15:36;;;;;;;;;;;;;;;;;;4148039;28;19925;-63
2023/12/04 11:17:38;;;;;;;;;;;;;;;;;;4131054;28;19929;-63
2023/12/04 11:19:40;;;;;;;;;;;;;;;;;;4148160;28;20381;-63
2023/12/04 11:21:41;;;;;;;;;;;;;;;;;;4130222;28;20350;-63
2023/12/04 11:23:43;;;;;;;;;;;;;;;;;;4129485;28;20405;-64
2023/12/04 11:25:44;;;;;;;;;;;;;;;;;;4146401;28;19921;-63
2023/12/04 11:27:46;;;;;;;;;;;;;;;;;;4148417;28;19921;-64
2023/12/04 11:29:47;;;;;;;;;;;;;;;;;;4157060;28;20393;-63
2023/12/04 11:31:49;;;;;;;;;;;;;;;;;;4145742;28;19925;-63
2023/12/04 11:33:50;;;;;;;;;;;;;;;;;;4147919;28;19929;-63
2023/12/04 11:35:52;;;;;;;;;;;;;;;;;;4148394;28;20451;-63
2023/12/04 11:37:53;;;;;;;;;;;;;;;;;;4149421;28;19976;-63
2023/12/04 11:39:56;;;;;;;;;;;;;;;;;;4147347;28;19921;-64
2023/12/04 11:41:57;;;;;;;;;;;;;;;;;;4147493;28;19945;-63
2023/12/04 11:43:59;;;;;;;;;;;;;;;;;;4147686;28;19968;-63
2023/12/04 11:46:00;;;;;;;;;;;;;;;;;;4147957;28;19929;-63
2023/12/04 11:48:02;;;;;;;;;;;;;;;;;;4152529;28;19921;-63
2023/12/04 11:50:04;;;;;;;;;;;;;;;;;;4148114;28;19975;-63
2023/12/04 11:52:06;;;;;;;;;;;;;;;;;;4138429;28;19933;-63
2023/12/04 11:54:07;;;;;;;;;;;;;;;;;;4155675;28;19925;-63
2023/12/04 11:56:09;;;;;;;;;;;;;;;;;;4133369;28;19956;-64
2023/12/04 11:58:10;;;;;;;;;;;;;;;;;;4152851;28;19929;-63
2023/12/04 12:00:12;;;;;;;;;;;;;;;;;;4147772;28;20318;-63
2023/12/04 12:02:13;;;;;;;;;;;;;;;;;;4147584;28;19971;-63
2023/12/04 12:04:17;;;;;;;;;;;;;;;;;;4130531;28;19929;-63
2023/12/04 12:06:18;;;;;;;;;;;;;;;;;;4147128;28;19925;-64
2023/12/04 12:08:20;;;;;;;;;;;;;;;;;;4134647;28;19925;-65
2023/12/04 12:10:21;;;;;;;;;;;;;;;;;;4137793;28;19921;-63
2023/12/04 12:12:23;;;;;;;;;;;;;;;;;;4141484;28;19951;-63
2023/12/04 12:14:24;;;;;;;;;;;;;;;;;;4146890;28;19956;-63
2023/12/04 12:16:26;;;;;;;;;;;;;;;;;;4147897;28;20406;-62
2023/12/04 12:18:27;;;;;;;;;;;;;;;;;;4147985;28;19952;-63
2023/12/04 12:20:30;;;;;;;;;;;;;;;;;;4157064;28;19983;-62
2023/12/04 12:22:31;;;;;;;;;;;;;;;;;;4150775;28;20381;-62
2023/12/04 12:24:33;;;;;;;;;;;;;;;;;;4148455;28;20378;-63
2023/12/04 12:26:34;;;;;;;;;;;;;;;;;;4157460;28;20331;-63
2023/12/04 12:28:35;;;;;;;;;;;;;;;;;;4136480;28;19921;-63
2023/12/04 12:30:37;;;;;;;;;;;;;;;;;;4146704;28;20020;-63
2023/12/04 12:32:39;;;;;;;;;;;;;;;;;;4147845;28;19929;-63
2023/12/04 12:34:40;;;;;;;;;;;;;;;;;;4147768;28;20016;-62
2023/12/04 12:36:42;;;;;;;;;;;;;;;;;;4150457;28;19929;-63
2023/12/04 12:38:49;;;;;;;;;;;;;;;;;;4151006;28;19921;-62
2023/12/04 12:40:50;;;;;;;;;;;;;;;;;;4148795;28;19984;-63
2023/12/04 12:42:52;;;;;;;;;;;;;;;;;;4150595;28;20017;-63
2023/12/04 12:44:55;;;;;;;;;;;;;;;;;;4151104;28;19927;-63
2023/12/04 12:46:56;;;;;;;;;;;;;;;;;;4151310;28;19926;-64
2023/12/04 12:48:58;;;;;;;;;;;;;;;;;;4145730;28;19925;-63
2023/12/04 12:51:00;;;;;;;;;;;;;;;;;;4151495;28;19932;-64
2023/12/04 12:53:01;;;;;;;;;;;;;;;;;;4153644;28;19925;-64
2023/12/04 12:55:04;;;;;;;;;;;;;;;;;;4152973;28;20040;-64
2023/12/04 12:57:06;;;;;;;;;;;;;;;;;;4150536;28;19921;-64
2023/12/04 12:59:08;;;;;;;;;;;;;;;;;;4150582;28;20289;-64
2023/12/04 13:01:10;;;;;;;;;;;;;;;;;;4150347;28;19921;-64
2023/12/04 13:03:11;;;;;;;;;;;;;;;;;;4150658;28;19922;-63
2023/12/04 13:05:13;;;;;;;;;;;;;;;;;;4150678;28;19921;-64
2023/12/04 13:07:14;;;;;;;;;;;;;;;;;;4150690;28;19922;-63
2023/12/04 13:09:17;;;;;;;;;;;;;;;;;;4157762;28;19961;-64
2023/12/04 13:11:19;;;;;;;;;;;;;;;;;;4149849;28;20360;-63
2023/12/04 13:13:27;;;;;;;;;;;;;;;;;;4152413;28;19925;-63
2023/12/04 13:15:29;;;;;;;;;;;;;;;;;;4153801;28;19944;-62
2023/12/04 13:17:31;;;;;;;;;;;;;;;;;;4150071;28;20595;-63
2023/12/04 13:19:34;;;;;;;;;;;;;;;;;;4150106;28;19925;-62
2023/12/04 13:21:36;;;;;;;;;;;;;;;;;;4132783;28;19933;-63
2023/12/04 13:23:38;;;;;;;;;;;;;;;;;;4142602;28;20386;-60
2023/12/04 13:25:39;;;;;;;;;;;;;;;;;;4147624;28;19968;-59
2023/12/04 13:27:41;;;;;;;;;;;;;;;;;;4147454;28;19925;-59
2023/12/04 13:29:42;;;;;;;;;;;;;;;;;;4149204;28;19922;-59
2023/12/04 13:31:46;;;;;;;;;;;;;;;;;;4148143;28;19921;-60
2023/12/04 13:33:54;;;;;;;;;;;;;;;;;;4132777;28;19926;-59
2023/12/04 13:35:56;;;;;;;;;;;;;;;;;;4150146;28;20020;-59
2023/12/04 13:38:01;;;;;;;;;;;;;;;;;;4149642;28;19925;-59
2023/12/04 13:40:12;;;;;;;;;;;;;;;;;;4149810;28;20358;-60
2023/12/04 13:44:41;;;;;;;;;;;;;;;;;;4135937;28;19969;-59
2023/12/04 13:46:43;;;;;;;;;;;;;;;;;;4148194;28;19932;-60
2023/12/04 13:48:44;;;;;;;;;;;;;;;;;;4149554;28;19929;-60
2023/12/04 13:50:46;;;;;;;;;;;;;;;;;;4148817;28;19925;-59
2023/12/04 13:52:55;;;;;;;;;;;;;;;;;;4149525;28;19925;-60
2023/12/04 13:54:57;;;;;;;;;;;;;;;;;;4146640;28;19921;-59